Back to Top

Language: 

My Weather Underground Personal Weather Station Historical Data with Graphs...

Delerius Weather Station Historical Data
Daily Summary for August 17, 2017 Units:  English    Metric   Both
« Previous Day
Next Day »
Daily Weekly Monthly Yearly Custom
  High: Low: Average:
Temperature: 75.0 °F 57.2 °F 64.3 °F
Dew Point: 62.6 °F 51.3 °F 56.8 °F
Humidity: 96 % 49 % 78 %
Wind Speed: 14.0 mph 0.0 mph 6.8 mph
Wind Gust: 24.0 mph - -
Wind:- - SW
Pressure: 29.83 in 29.72 in -
Precipitation: 0.29 in    
Historical Graphs
 
 
Tabular Data for August 17, 2017
Time Temperature Dew Point Pressure Wind Wind Speed Wind Gust Humidity Rainfall Rate (Hourly) solar Conditions
00:03 62.1 °F 53.7 °F 29.83 in South 8.0 mph 15.0 mph 74 % 0.00 in 0 W/m2
00:08 61.9 °F 53.5 °F 29.82 in South 8.0 mph 15.0 mph 74 % 0.00 in 0 W/m2
00:12 61.9 °F 53.5 °F 29.82 in SSW 9.0 mph 15.0 mph 74 % 0.00 in 0 W/m2
00:17 61.9 °F 53.5 °F 29.82 in South 9.0 mph 20.0 mph 74 % 0.00 in 0 W/m2
00:22 61.9 °F 53.1 °F 29.82 in South 9.0 mph 20.0 mph 73 % 0.00 in 0 W/m2
00:27 61.9 °F 53.1 °F 29.82 in SSW 9.0 mph 19.0 mph 73 % 0.00 in 0 W/m2
00:32 61.9 °F 53.1 °F 29.81 in South 8.0 mph 18.0 mph 73 % 0.00 in 0 W/m2
00:37 61.9 °F 53.5 °F 29.81 in SSW 9.0 mph 21.0 mph 74 % 0.00 in 0 W/m2
00:42 61.5 °F 53.5 °F 29.81 in SW 12.0 mph 21.0 mph 75 % 0.01 in 0 W/m2
00:47 61.2 °F 54.2 °F 29.81 in SSW 12.0 mph 20.0 mph 78 % 0.01 in 0 W/m2
00:52 60.6 °F 54.1 °F 29.81 in SSW 10.0 mph 18.0 mph 79 % 0.01 in 0 W/m2
00:57 60.3 °F 54.4 °F 29.81 in SSW 11.0 mph 23.0 mph 81 % 0.01 in 0 W/m2
01:02 59.5 °F 54.7 °F 29.80 in SSW 12.0 mph 23.0 mph 84 % 0.03 in 0 W/m2
01:07 58.8 °F 54.6 °F 29.80 in SSW 10.0 mph 18.0 mph 86 % 0.04 in 0 W/m2
01:12 58.5 °F 54.9 °F 29.80 in SSW 9.0 mph 18.0 mph 88 % 0.04 in 0 W/m2
01:17 58.3 °F 55.1 °F 29.80 in SSW 8.0 mph 14.0 mph 89 % 0.04 in 0 W/m2
01:22 58.1 °F 54.9 °F 29.79 in SSW 7.0 mph 13.0 mph 89 % 0.05 in 0 W/m2
01:27 57.9 °F 55.0 °F 29.79 in SSW 6.0 mph 11.0 mph 90 % 0.06 in 0 W/m2
01:32 57.7 °F 54.8 °F 29.79 in SSW 7.0 mph 11.0 mph 90 % 0.07 in 0 W/m2
01:37 57.7 °F 55.1 °F 29.79 in SSW 7.0 mph 14.0 mph 91 % 0.08 in 0 W/m2
01:42 57.6 °F 55.0 °F 29.79 in SSW 7.0 mph 14.0 mph 91 % 0.07 in 0 W/m2
01:47 57.6 °F 55.3 °F 29.78 in South 4.0 mph 11.0 mph 92 % 0.09 in 0 W/m2
01:52 57.6 °F 55.3 °F 29.78 in South 3.0 mph 8.0 mph 92 % 0.09 in 0 W/m2
01:57 57.6 °F 55.3 °F 29.78 in SSE 5.0 mph 12.0 mph 92 % 0.09 in 0 W/m2
02:02 57.4 °F 55.1 °F 29.77 in SSE 7.0 mph 12.0 mph 92 % 0.07 in 0 W/m2
02:07 57.4 °F 55.1 °F 29.77 in South 6.0 mph 11.0 mph 92 % 0.06 in 0 W/m2
02:12 57.4 °F 55.4 °F 29.77 in South 5.0 mph 13.0 mph 93 % 0.06 in 0 W/m2
02:17 57.4 °F 55.4 °F 29.77 in South 6.0 mph 15.0 mph 93 % 0.06 in 0 W/m2
02:22 57.4 °F 55.1 °F 29.77 in South 8.0 mph 16.0 mph 92 % 0.06 in 0 W/m2
02:27 57.4 °F 55.1 °F 29.77 in South 9.0 mph 16.0 mph 92 % 0.05 in 0 W/m2
02:32 57.4 °F 55.1 °F 29.77 in South 8.0 mph 16.0 mph 92 % 0.04 in 0 W/m2
02:37 57.4 °F 55.1 °F 29.77 in South 5.0 mph 14.0 mph 92 % 0.03 in 0 W/m2
02:42 57.4 °F 55.1 °F 29.77 in South 5.0 mph 9.0 mph 92 % 0.02 in 0 W/m2
02:47 57.4 °F 55.1 °F 29.77 in SSW 6.0 mph 12.0 mph 92 % 0.02 in 0 W/m2
02:52 57.4 °F 55.4 °F 29.77 in SSW 7.0 mph 18.0 mph 93 % 0.02 in 0 W/m2
02:57 57.4 °F 55.4 °F 29.76 in SSW 8.0 mph 18.0 mph 93 % 0.02 in 0 W/m2
03:02 57.4 °F 55.1 °F 29.77 in SSW 7.0 mph 13.0 mph 92 % 0.02 in 0 W/m2
03:07 57.4 °F 55.4 °F 29.77 in SSW 5.0 mph 9.0 mph 93 % 0.02 in 0 W/m2
03:13 57.4 °F 55.4 °F 29.77 in SSW 4.0 mph 9.0 mph 93 % 0.02 in 0 W/m2
03:18 57.4 °F 55.4 °F 29.76 in SSW 5.0 mph 9.0 mph 93 % 0.01 in 0 W/m2
03:23 57.4 °F 55.4 °F 29.76 in SSW 6.0 mph 10.0 mph 93 % 0.01 in 0 W/m2
03:28 57.4 °F 55.4 °F 29.76 in SSW 5.0 mph 10.0 mph 93 % 0.01 in 0 W/m2
03:33 57.4 °F 55.4 °F 29.76 in South 4.0 mph 9.0 mph 93 % 0.01 in 0 W/m2
03:38 57.4 °F 55.4 °F 29.76 in SSE 3.0 mph 7.0 mph 93 % 0.02 in 0 W/m2
03:43 57.2 °F 55.2 °F 29.75 in SSE 1.0 mph 6.0 mph 93 % 0.02 in 0 W/m2
03:48 57.2 °F 55.2 °F 29.75 in SE 2.0 mph 7.0 mph 93 % 0.02 in 0 W/m2
03:53 57.2 °F 55.2 °F 29.75 in ESE 2.0 mph 8.0 mph 93 % 0.02 in 0 W/m2
03:58 57.2 °F 55.2 °F 29.75 in ESE 4.0 mph 9.0 mph 93 % 0.01 in 0 W/m2
04:03 57.2 °F 55.2 °F 29.75 in ESE 5.0 mph 9.0 mph 93 % 0.01 in 0 W/m2
04:08 57.2 °F 55.2 °F 29.74 in SE 5.0 mph 9.0 mph 93 % 0.01 in 0 W/m2
04:13 57.2 °F 55.5 °F 29.74 in SSE 5.0 mph 10.0 mph 94 % 0.01 in 0 W/m2
04:18 57.4 °F 55.7 °F 29.74 in South 6.0 mph 10.0 mph 94 % 0.01 in 0 W/m2
04:22 57.4 °F 55.7 °F 29.74 in South 6.0 mph 11.0 mph 94 % 0.01 in 0 W/m2
04:27 57.4 °F 55.7 °F 29.74 in SSE 6.0 mph 11.0 mph 94 % 0.01 in 0 W/m2
04:31 57.4 °F 55.7 °F 29.74 in SSE 5.0 mph 9.0 mph 94 % 0.02 in 0 W/m2
04:36 57.4 °F 55.7 °F 29.74 in South 4.0 mph 9.0 mph 94 % 0.01 in 0 W/m2
04:41 57.6 °F 55.8 °F 29.74 in SSW 4.0 mph 9.0 mph 94 % 0.01 in 0 W/m2
04:46 57.6 °F 55.8 °F 29.73 in South 4.0 mph 8.0 mph 94 % 0.02 in 0 W/m2
04:51 57.4 °F 55.7 °F 29.73 in South 5.0 mph 8.0 mph 94 % 0.02 in 0 W/m2
04:57 57.4 °F 55.7 °F 29.73 in South 4.0 mph 8.0 mph 94 % 0.03 in 0 W/m2
05:02 57.4 °F 55.7 °F 29.73 in South 5.0 mph 9.0 mph 94 % 0.04 in 0 W/m2
05:07 57.4 °F 55.7 °F 29.73 in SSE 5.0 mph 9.0 mph 94 % 0.04 in 0 W/m2
05:12 57.4 °F 56.0 °F 29.73 in South 4.0 mph 8.0 mph 95 % 0.04 in 0 W/m2
05:17 57.4 °F 56.0 °F 29.72 in South 5.0 mph 10.0 mph 95 % 0.04 in 0 W/m2
05:22 57.4 °F 56.0 °F 29.72 in South 6.0 mph 10.0 mph 95 % 0.05 in 0 W/m2
05:27 57.4 °F 56.0 °F 29.72 in South 4.0 mph 9.0 mph 95 % 0.05 in 0 W/m2
05:32 57.4 °F 56.0 °F 29.72 in South 4.0 mph 7.0 mph 95 % 0.04 in 0 W/m2
05:37 57.4 °F 56.0 °F 29.72 in South 5.0 mph 8.0 mph 95 % 0.05 in 0 W/m2
05:42 57.6 °F 56.1 °F 29.72 in South 4.0 mph 8.0 mph 95 % 0.06 in 0 W/m2
05:47 57.6 °F 56.1 °F 29.72 in SSW 3.0 mph 8.0 mph 95 % 0.05 in 0 W/m2
05:52 57.6 °F 56.1 °F 29.72 in SW 4.0 mph 7.0 mph 95 % 0.04 in 0 W/m2
05:57 57.6 °F 56.1 °F 29.72 in SW 3.0 mph 7.0 mph 95 % 0.04 in 0 W/m2
06:02 57.6 °F 56.1 °F 29.72 in SSW 2.0 mph 7.0 mph 95 % 0.03 in 0 W/m2
06:07 57.6 °F 56.1 °F 29.72 in SSE 3.0 mph 7.0 mph 95 % 0.04 in 0 W/m2
06:12 57.6 °F 56.1 °F 29.72 in SSE 3.0 mph 7.0 mph 95 % 0.04 in 0 W/m2
06:17 57.6 °F 56.1 °F 29.72 in SSE 2.0 mph 6.0 mph 95 % 0.04 in 0 W/m2
06:22 57.6 °F 56.1 °F 29.73 in SW 2.0 mph 6.0 mph 95 % 0.03 in 7 W/m2
06:27 57.7 °F 56.3 °F 29.72 in WSW 3.0 mph 6.0 mph 95 % 0.03 in 5 W/m2
06:32 57.7 °F 56.3 °F 29.72 in SW 3.0 mph 7.0 mph 95 % 0.02 in 9 W/m2
06:37 57.7 °F 56.3 °F 29.72 in SW 2.0 mph 7.0 mph 95 % 0.02 in 16 W/m2
06:42 57.9 °F 56.8 °F 29.72 in SSW 1.0 mph 5.0 mph 96 % 0.02 in 18 W/m2
06:47 57.9 °F 56.8 °F 29.72 in SSW 1.0 mph 5.0 mph 96 % 0.02 in 19 W/m2
06:52 57.9 °F 56.8 °F 29.72 in SSE 2.0 mph 7.0 mph 96 % 0.02 in 23 W/m2
06:58 58.1 °F 57.0 °F 29.72 in SSE 4.0 mph 8.0 mph 96 % 0.01 in 35 W/m2
07:03 58.1 °F 57.0 °F 29.72 in SSE 4.0 mph 8.0 mph 96 % 0.01 in 46 W/m2
07:08 58.3 °F 57.1 °F 29.72 in South 3.0 mph 7.0 mph 96 % 0.00 in 60 W/m2
07:13 58.3 °F 57.1 °F 29.72 in SSW 4.0 mph 10.0 mph 96 % 0.00 in 67 W/m2
07:18 58.5 °F 57.3 °F 29.72 in SSW 4.0 mph 10.0 mph 96 % 0.00 in 58 W/m2
07:23 58.6 °F 57.5 °F 29.72 in SSW 6.0 mph 11.0 mph 96 % 0.00 in 69 W/m2
07:28 58.8 °F 57.7 °F 29.72 in SSW 7.0 mph 11.0 mph 96 % 0.00 in 51 W/m2
07:33 59.0 °F 57.9 °F 29.72 in SSW 7.0 mph 12.0 mph 96 % 0.00 in 46 W/m2
07:38 59.2 °F 58.0 °F 29.72 in SSW 6.0 mph 12.0 mph 96 % 0.00 in 63 W/m2
07:43 59.2 °F 58.0 °F 29.72 in SSW 5.0 mph 10.0 mph 96 % 0.00 in 84 W/m2
07:48 59.4 °F 58.2 °F 29.72 in SSW 5.0 mph 10.0 mph 96 % 0.00 in 116 W/m2
07:53 59.5 °F 58.4 °F 29.72 in South 2.0 mph 8.0 mph 96 % 0.00 in 97 W/m2
07:58 59.5 °F 58.4 °F 29.72 in Calm   5.0 mph 96 % 0.00 in 107 W/m2
08:03 59.7 °F 58.6 °F 29.72 in Calm   4.0 mph 96 % 0.00 in 120 W/m2
08:08 59.9 °F 58.8 °F 29.72 in South 1.0 mph 6.0 mph 96 % 0.00 in 125 W/m2
08:13 60.1 °F 58.9 °F 29.72 in South 1.0 mph 6.0 mph 96 % 0.00 in 132 W/m2
08:18 60.3 °F 59.1 °F 29.72 in SW 3.0 mph 8.0 mph 96 % 0.00 in 114 W/m2
08:23 60.4 °F 59.3 °F 29.73 in SW 5.0 mph 10.0 mph 96 % 0.00 in 158 W/m2
08:28 60.4 °F 59.3 °F 29.73 in SSW 6.0 mph 10.0 mph 96 % 0.00 in 156 W/m2
08:33 60.6 °F 59.5 °F 29.73 in SSW 7.0 mph 11.0 mph 96 % 0.00 in 192 W/m2
08:38 60.8 °F 59.4 °F 29.73 in SSW 7.0 mph 11.0 mph 95 % 0.00 in 193 W/m2
08:43 61.0 °F 59.5 °F 29.73 in SSW 7.0 mph 11.0 mph 95 % 0.00 in 72 W/m2
08:48 61.2 °F 59.7 °F 29.73 in SSW 5.0 mph 11.0 mph 95 % 0.00 in 67 W/m2
08:53 61.2 °F 59.7 °F 29.73 in South 4.0 mph 9.0 mph 95 % 0.00 in 121 W/m2
08:58 61.2 °F 59.7 °F 29.73 in South 3.0 mph 8.0 mph 95 % 0.00 in 49 W/m2
09:03 61.2 °F 59.7 °F 29.73 in South 2.0 mph 6.0 mph 95 % 0.00 in 40 W/m2
09:08 61.2 °F 59.7 °F 29.73 in South 1.0 mph 6.0 mph 95 % 0.00 in 58 W/m2
09:13 61.2 °F 59.7 °F 29.73 in South 1.0 mph 5.0 mph 95 % 0.00 in 67 W/m2
09:18 61.2 °F 59.7 °F 29.73 in South 1.0 mph 4.0 mph 95 % 0.00 in 79 W/m2
09:23 61.3 °F 59.9 °F 29.73 in Calm   2.0 mph 95 % 0.00 in 123 W/m2
09:28 61.5 °F 60.1 °F 29.73 in Calm     95 % 0.00 in 162 W/m2
09:33 61.7 °F 60.3 °F 29.73 in Calm     95 % 0.00 in 95 W/m2
09:39 61.9 °F 60.4 °F 29.73 in Calm   2.0 mph 95 % 0.00 in 162 W/m2
09:44 62.1 °F 60.6 °F 29.73 in Calm   4.0 mph 95 % 0.00 in 125 W/m2
09:49 62.2 °F 60.8 °F 29.73 in Calm   4.0 mph 95 % 0.00 in 151 W/m2
09:54 62.4 °F 61.0 °F 29.73 in South 1.0 mph 4.0 mph 95 % 0.00 in 241 W/m2
09:59 62.6 °F 60.8 °F 29.73 in South 1.0 mph 4.0 mph 94 % 0.00 in 162 W/m2
10:04 62.8 °F 61.0 °F 29.74 in Calm   3.0 mph 94 % 0.00 in 202 W/m2
10:09 63.0 °F 61.2 °F 29.74 in Calm   2.0 mph 94 % 0.00 in 244 W/m2
10:14 63.1 °F 61.1 °F 29.74 in Calm   2.0 mph 93 % 0.00 in 225 W/m2
10:19 63.3 °F 61.3 °F 29.74 in Calm   2.0 mph 93 % 0.00 in 135 W/m2
10:24 63.5 °F 61.4 °F 29.74 in Calm   1.0 mph 93 % 0.00 in 102 W/m2
10:29 63.5 °F 61.1 °F 29.74 in Calm   4.0 mph 92 % 0.00 in 181 W/m2
10:34 63.7 °F 61.3 °F 29.74 in Calm   4.0 mph 92 % 0.00 in 200 W/m2
10:39 64.0 °F 62.0 °F 29.74 in Calm   4.0 mph 93 % 0.00 in 304 W/m2
10:44 64.6 °F 62.2 °F 29.74 in WNW 2.0 mph 8.0 mph 92 % 0.00 in 234 W/m2
10:49 64.8 °F 62.1 °F 29.74 in WNW 5.0 mph 10.0 mph 91 % 0.00 in 243 W/m2
10:54 64.9 °F 61.9 °F 29.74 in WNW 6.0 mph 10.0 mph 90 % 0.00 in 236 W/m2
10:59 65.3 °F 62.3 °F 29.74 in WNW 5.0 mph 9.0 mph 90 % 0.00 in 318 W/m2
11:04 65.5 °F 62.2 °F 29.74 in WNW 6.0 mph 10.0 mph 89 % 0.00 in 255 W/m2
11:09 65.8 °F 62.2 °F 29.74 in WNW 7.0 mph 11.0 mph 88 % 0.00 in 320 W/m2
11:14 66.4 °F 62.4 °F 29.74 in WNW 8.0 mph 14.0 mph 87 % 0.00 in 313 W/m2
11:19 66.7 °F 62.1 °F 29.74 in West 9.0 mph 14.0 mph 85 % 0.00 in 722 W/m2
11:24 66.7 °F 61.4 °F 29.74 in West 9.0 mph 14.0 mph 83 % 0.00 in 155 W/m2
11:29 66.7 °F 61.4 °F 29.74 in West 9.0 mph 14.0 mph 83 % 0.00 in 835 W/m2
11:34 67.3 °F 62.6 °F 29.74 in West 8.0 mph 13.0 mph 85 % 0.00 in 958 W/m2
11:39 67.8 °F 62.1 °F 29.74 in WSW 8.0 mph 13.0 mph 82 % 0.00 in 939 W/m2
11:44 68.4 °F 62.3 °F 29.74 in WSW 9.0 mph 13.0 mph 81 % 0.00 in 912 W/m2
11:49 69.1 °F 62.6 °F 29.74 in West 7.0 mph 12.0 mph 80 % 0.00 in 919 W/m2
11:54 69.6 °F 61.7 °F 29.74 in WNW 7.0 mph 12.0 mph 76 % 0.00 in 875 W/m2
11:59 70.0 °F 61.7 °F 29.74 in WNW 8.0 mph 12.0 mph 75 % 0.00 in 833 W/m2
12:04 70.5 °F 61.4 °F 29.74 in West 7.0 mph 15.0 mph 73 % 0.00 in 835 W/m2
12:09 70.5 °F 60.7 °F 29.74 in West 10.0 mph 16.0 mph 71 % 0.00 in 851 W/m2
12:14 70.7 °F 59.6 °F 29.74 in West 11.0 mph 16.0 mph 68 % 0.00 in 835 W/m2
12:19 70.9 °F 60.6 °F 29.74 in West 8.0 mph 13.0 mph 70 % 0.00 in 847 W/m2
12:24 71.1 °F 59.1 °F 29.74 in West 8.0 mph 15.0 mph 66 % 0.00 in 828 W/m2
12:29 71.4 °F 59.0 °F 29.74 in West 10.0 mph 16.0 mph 65 % 0.00 in 830 W/m2
12:34 71.8 °F 59.4 °F 29.74 in West 10.0 mph 16.0 mph 65 % 0.00 in 849 W/m2
12:39 71.8 °F 59.8 °F 29.74 in West 9.0 mph 16.0 mph 66 % 0.00 in 844 W/m2
12:44 72.1 °F 58.8 °F 29.74 in West 9.0 mph 15.0 mph 63 % 0.00 in 896 W/m2
12:49 72.3 °F 59.0 °F 29.74 in West 8.0 mph 15.0 mph 63 % 0.00 in 684 W/m2
12:54 72.5 °F 58.3 °F 29.74 in West 8.0 mph 13.0 mph 61 % 0.00 in 824 W/m2
12:59 72.9 °F 58.2 °F 29.74 in West 8.0 mph 16.0 mph 60 % 0.00 in 816 W/m2
13:04 72.9 °F 57.7 °F 29.74 in West 8.0 mph 16.0 mph 59 % 0.00 in 830 W/m2
13:09 73.0 °F 57.4 °F 29.74 in WSW 9.0 mph 13.0 mph 58 % 0.00 in 844 W/m2
13:14 73.2 °F 58.5 °F 29.74 in West 8.0 mph 13.0 mph 60 % 0.00 in 875 W/m2
13:19 73.8 °F 58.1 °F 29.73 in West 8.0 mph 14.0 mph 58 % 0.00 in 858 W/m2
13:25 73.8 °F 57.6 °F 29.73 in West 9.0 mph 15.0 mph 57 % 0.00 in 851 W/m2
13:30 73.8 °F 58.1 °F 29.73 in West 8.0 mph 15.0 mph 58 % 0.00 in 833 W/m2
13:35 74.1 °F 57.9 °F 29.73 in WNW 8.0 mph 16.0 mph 57 % 0.00 in 844 W/m2
13:40 74.5 °F 57.8 °F 29.73 in WNW 9.0 mph 16.0 mph 56 % 0.00 in 809 W/m2
13:45 74.1 °F 56.9 °F 29.73 in West 8.0 mph 15.0 mph 55 % 0.00 in 879 W/m2
13:50 74.1 °F 56.4 °F 29.73 in West 9.0 mph 14.0 mph 54 % 0.00 in 833 W/m2
13:55 74.1 °F 58.4 °F 29.73 in West 8.0 mph 13.0 mph 58 % 0.00 in 167 W/m2
14:00 73.9 °F 58.2 °F 29.73 in West 8.0 mph 13.0 mph 58 % 0.00 in 306 W/m2
14:05 73.9 °F 57.7 °F 29.73 in West 7.0 mph 13.0 mph 57 % 0.00 in 216 W/m2
14:10 73.8 °F 58.1 °F 29.73 in West 7.0 mph 12.0 mph 58 % 0.00 in 923 W/m2
14:15 73.9 °F 57.3 °F 29.73 in WNW 8.0 mph 14.0 mph 56 % 0.00 in 207 W/m2
14:20 73.9 °F 57.3 °F 29.73 in WNW 8.0 mph 15.0 mph 56 % 0.00 in 227 W/m2
14:25 74.1 °F 56.9 °F 29.73 in West 8.0 mph 15.0 mph 55 % 0.00 in 853 W/m2
14:30 74.1 °F 56.9 °F 29.73 in West 8.0 mph 14.0 mph 55 % 0.00 in 988 W/m2
14:35 74.7 °F 56.9 °F 29.73 in West 8.0 mph 13.0 mph 54 % 0.00 in 988 W/m2
14:40 74.8 °F 57.1 °F 29.74 in West 9.0 mph 13.0 mph 54 % 0.00 in 947 W/m2
14:45 75.0 °F 57.8 °F 29.73 in WSW 8.0 mph 13.0 mph 55 % 0.00 in 882 W/m2
14:50 75.0 °F 56.2 °F 29.73 in SW 9.0 mph 21.0 mph 52 % 0.00 in 925 W/m2
14:55 74.8 °F 56.6 °F 29.73 in SW 11.0 mph 21.0 mph 53 % 0.00 in 863 W/m2
15:00 74.7 °F 56.9 °F 29.74 in SW 11.0 mph 21.0 mph 54 % 0.00 in 870 W/m2
15:05 74.5 °F 57.8 °F 29.74 in SW 11.0 mph 21.0 mph 56 % 0.00 in 891 W/m2
15:10 74.7 °F 57.9 °F 29.74 in WSW 9.0 mph 16.0 mph 56 % 0.00 in 346 W/m2
15:15 74.8 °F 58.6 °F 29.74 in West 8.0 mph 14.0 mph 57 % 0.00 in 186 W/m2
15:20 73.9 °F 58.2 °F 29.74 in WSW 9.0 mph 16.0 mph 58 % 0.00 in 325 W/m2
15:25 73.2 °F 58.5 °F 29.74 in WSW 10.0 mph 16.0 mph 60 % 0.00 in 220 W/m2
15:30 73.0 °F 58.3 °F 29.73 in West 10.0 mph 16.0 mph 60 % 0.00 in 287 W/m2
15:35 73.0 °F 58.8 °F 29.73 in West 10.0 mph 15.0 mph 61 % 0.00 in 301 W/m2
15:40 73.2 °F 59.0 °F 29.73 in WSW 10.0 mph 16.0 mph 61 % 0.00 in 770 W/m2
15:45 73.6 °F 57.4 °F 29.73 in WSW 12.0 mph 23.0 mph 57 % 0.00 in 682 W/m2
15:50 73.2 °F 57.1 °F 29.74 in WSW 13.0 mph 23.0 mph 57 % 0.00 in 654 W/m2
15:55 73.4 °F 57.2 °F 29.74 in WSW 13.0 mph 23.0 mph 57 % 0.00 in 640 W/m2
16:00 73.2 °F 57.1 °F 29.74 in WSW 13.0 mph 23.0 mph 57 % 0.00 in 624 W/m2
16:05 73.0 °F 56.9 °F 29.74 in WSW 13.0 mph 23.0 mph 57 % 0.00 in 608 W/m2
16:10 72.9 °F 56.7 °F 29.74 in SW 13.0 mph 23.0 mph 57 % 0.00 in 596 W/m2
16:15 72.5 °F 56.9 °F 29.74 in SW 13.0 mph 23.0 mph 58 % 0.00 in 587 W/m2
16:21 72.5 °F 56.4 °F 29.75 in SW 13.0 mph 21.0 mph 57 % 0.00 in 571 W/m2
16:26 72.5 °F 56.4 °F 29.74 in WSW 13.0 mph 21.0 mph 57 % 0.00 in 566 W/m2
16:31 72.7 °F 56.1 °F 29.74 in WSW 12.0 mph 20.0 mph 56 % 0.00 in 559 W/m2
16:36 72.7 °F 56.1 °F 29.74 in WSW 13.0 mph 24.0 mph 56 % 0.00 in 536 W/m2
16:40 72.3 °F 56.2 °F 29.75 in WSW 14.0 mph 24.0 mph 57 % 0.00 in 526 W/m2
16:45 72.7 °F 56.6 °F 29.74 in WSW 11.0 mph 20.0 mph 57 % 0.00 in 506 W/m2
16:50 72.1 °F 56.1 °F 29.74 in SW 12.0 mph 21.0 mph 57 % 0.00 in 496 W/m2
16:55 72.0 °F 55.9 °F 29.74 in SW 13.0 mph 21.0 mph 57 % 0.00 in 492 W/m2
17:01 72.0 °F 54.9 °F 29.74 in SW 12.0 mph 21.0 mph 55 % 0.00 in 475 W/m2
17:06 71.8 °F 54.2 °F 29.74 in SW 13.0 mph 21.0 mph 54 % 0.00 in 459 W/m2
17:11 71.8 °F 53.7 °F 29.74 in SW 14.0 mph 24.0 mph 53 % 0.00 in 446 W/m2
17:16 71.8 °F 53.7 °F 29.74 in SW 13.0 mph 24.0 mph 53 % 0.00 in 441 W/m2
17:21 71.6 °F 52.5 °F 29.74 in WSW 14.0 mph 24.0 mph 51 % 0.00 in 425 W/m2
17:26 71.4 °F 51.3 °F 29.74 in WSW 14.0 mph 24.0 mph 49 % 0.00 in 408 W/m2
17:31 71.4 °F 51.3 °F 29.74 in WSW 13.0 mph 23.0 mph 49 % 0.00 in 392 W/m2
17:36 71.4 °F 51.8 °F 29.74 in WSW 11.0 mph 19.0 mph 50 % 0.00 in 381 W/m2
17:41 71.6 °F 52.0 °F 29.74 in WSW 10.0 mph 19.0 mph 50 % 0.00 in 364 W/m2
17:46 71.8 °F 52.7 °F 29.74 in WSW 12.0 mph 20.0 mph 51 % 0.00 in 350 W/m2
17:51 71.4 °F 52.9 °F 29.74 in WSW 12.0 mph 23.0 mph 52 % 0.00 in 339 W/m2
17:56 71.2 °F 53.2 °F 29.74 in WSW 12.0 mph 23.0 mph 53 % 0.00 in 325 W/m2
18:01 71.2 °F 53.2 °F 29.74 in WSW 12.0 mph 22.0 mph 53 % 0.00 in 308 W/m2
18:06 71.1 °F 54.1 °F 29.75 in WSW 11.0 mph 22.0 mph 55 % 0.00 in 297 W/m2
18:07 70.9 °F 53.9 °F 29.75 in WSW 11.0 mph 22.0 mph 55 % 0.00 in 290 W/m2
18:12 70.7 °F 53.2 °F 29.75 in WSW 11.0 mph 22.0 mph 54 % 0.00 in 276 W/m2
18:17 70.5 °F 53.6 °F 29.74 in WSW 12.0 mph 24.0 mph 55 % 0.00 in 264 W/m2
18:22 70.3 °F 53.9 °F 29.74 in WSW 11.0 mph 24.0 mph 56 % 0.00 in 253 W/m2
18:27 70.3 °F 53.4 °F 29.74 in WSW 11.0 mph 24.0 mph 55 % 0.00 in 236 W/m2
18:32 70.2 °F 53.7 °F 29.74 in WSW 11.0 mph 20.0 mph 56 % 0.00 in 225 W/m2
18:37 70.3 °F 53.4 °F 29.74 in WSW 11.0 mph 20.0 mph 55 % 0.00 in 209 W/m2
18:42 70.2 °F 53.7 °F 29.74 in WSW 11.0 mph 18.0 mph 56 % 0.00 in 193 W/m2
18:47 70.0 °F 53.1 °F 29.74 in WSW 11.0 mph 19.0 mph 55 % 0.00 in 181 W/m2
18:52 70.0 °F 53.6 °F 29.74 in WSW 11.0 mph 20.0 mph 56 % 0.00 in 171 W/m2
18:57 69.8 °F 53.4 °F 29.74 in WSW 9.0 mph 20.0 mph 56 % 0.00 in 153 W/m2
19:02 69.4 °F 53.5 °F 29.74 in SW 8.0 mph 15.0 mph 57 % 0.00 in 149 W/m2
19:07 69.4 °F 54.0 °F 29.75 in SW 9.0 mph 18.0 mph 58 % 0.00 in 146 W/m2
19:12 69.3 °F 53.8 °F 29.75 in SW 9.0 mph 18.0 mph 58 % 0.00 in 178 W/m2
19:17 69.1 °F 54.1 °F 29.75 in SW 8.0 mph 15.0 mph 59 % 0.00 in 84 W/m2
19:22 68.7 °F 53.8 °F 29.75 in SW 11.0 mph 20.0 mph 59 % 0.00 in 40 W/m2
19:27 68.2 °F 53.8 °F 29.75 in SW 11.0 mph 20.0 mph 60 % 0.00 in 33 W/m2
19:32 67.6 °F 53.7 °F 29.75 in SW 10.0 mph 18.0 mph 61 % 0.00 in 72 W/m2
19:37 67.3 °F 53.8 °F 29.75 in SW 10.0 mph 16.0 mph 62 % 0.00 in 58 W/m2
19:42 66.9 °F 53.9 °F 29.75 in SSW 9.0 mph 16.0 mph 63 % 0.00 in 25 W/m2
19:47 66.7 °F 54.2 °F 29.75 in SSW 9.0 mph 14.0 mph 64 % 0.00 in 18 W/m2
19:49 66.6 °F 54.4 °F 29.75 in SSW 9.0 mph 14.0 mph 65 % 0.00 in 18 W/m2
19:54 66.2 °F 54.5 °F 29.75 in SW 8.0 mph 11.0 mph 66 % 0.00 in 16 W/m2
19:59 65.8 °F 54.6 °F 29.75 in SW 8.0 mph 11.0 mph 67 % 0.00 in 14 W/m2
20:04 65.5 °F 55.0 °F 29.75 in SW 8.0 mph 11.0 mph 69 % 0.00 in 12 W/m2
20:09 65.1 °F 55.1 °F 29.75 in SW 8.0 mph 11.0 mph 70 % 0.00 in 11 W/m2
20:14 64.9 °F 54.9 °F 29.74 in SSW 8.0 mph 13.0 mph 70 % 0.00 in 9 W/m2
20:19 64.8 °F 55.1 °F 29.74 in SSW 7.0 mph 13.0 mph 71 % 0.00 in 7 W/m2
20:24 64.6 °F 55.3 °F 29.74 in SSW 6.0 mph 10.0 mph 72 % 0.00 in 7 W/m2
20:29 64.2 °F 55.4 °F 29.74 in SSW 6.0 mph 11.0 mph 73 % 0.00 in 5 W/m2
20:34 64.0 °F 55.2 °F 29.74 in SSW 7.0 mph 11.0 mph 73 % 0.00 in 0 W/m2
20:39 63.9 °F 55.4 °F 29.74 in SW 8.0 mph 13.0 mph 74 % 0.00 in 0 W/m2
20:44 63.9 °F 55.8 °F 29.74 in SW 8.0 mph 13.0 mph 75 % 0.00 in 0 W/m2
20:49 63.7 °F 55.6 °F 29.74 in SW 8.0 mph 12.0 mph 75 % 0.00 in 0 W/m2
20:54 63.7 °F 55.6 °F 29.75 in SW 8.0 mph 14.0 mph 75 % 0.00 in 0 W/m2
20:59 63.7 °F 56.3 °F 29.75 in WSW 8.0 mph 14.0 mph 77 % 0.00 in 0 W/m2
21:04 63.7 °F 56.3 °F 29.75 in WSW 8.0 mph 13.0 mph 77 % 0.00 in 0 W/m2
21:09 63.7 °F 56.3 °F 29.75 in West 8.0 mph 13.0 mph 77 % 0.00 in 0 W/m2
21:14 63.3 °F 56.7 °F 29.75 in West 8.0 mph 12.0 mph 79 % 0.00 in 0 W/m2
21:19 63.1 °F 56.5 °F 29.75 in West 7.0 mph 12.0 mph 79 % 0.00 in 0 W/m2
21:24 63.0 °F 56.7 °F 29.74 in West 6.0 mph 10.0 mph 80 % 0.00 in 0 W/m2
21:29 63.0 °F 56.7 °F 29.75 in West 4.0 mph 9.0 mph 80 % 0.00 in 0 W/m2
21:34 62.8 °F 56.5 °F 29.75 in WSW 3.0 mph 8.0 mph 80 % 0.00 in 0 W/m2
21:39 62.8 °F 56.9 °F 29.74 in WSW 3.0 mph 8.0 mph 81 % 0.00 in 0 W/m2
21:44 62.6 °F 56.7 °F 29.74 in WSW 3.0 mph 7.0 mph 81 % 0.00 in 0 W/m2
21:49 62.6 °F 56.7 °F 29.74 in SSW 4.0 mph 9.0 mph 81 % 0.00 in 0 W/m2
21:54 62.4 °F 56.5 °F 29.74 in SSW 5.0 mph 11.0 mph 81 % 0.00 in 0 W/m2
21:59 62.4 °F 56.5 °F 29.74 in SSW 5.0 mph 11.0 mph 81 % 0.00 in 0 W/m2
22:04 62.4 °F 56.5 °F 29.74 in SSW 5.0 mph 11.0 mph 81 % 0.00 in 0 W/m2
22:09 62.6 °F 56.3 °F 29.74 in SSW 5.0 mph 11.0 mph 80 % 0.00 in 0 W/m2
22:14 62.6 °F 56.3 °F 29.73 in SW 4.0 mph 8.0 mph 80 % 0.00 in 0 W/m2
22:19 62.6 °F 56.3 °F 29.74 in SW 4.0 mph 9.0 mph 80 % 0.00 in 0 W/m2
22:24 62.6 °F 56.7 °F 29.74 in SW 5.0 mph 9.0 mph 81 % 0.00 in 0 W/m2
22:29 62.4 °F 57.2 °F 29.74 in WSW 7.0 mph 12.0 mph 83 % 0.02 in 0 W/m2
22:34 61.9 °F 57.3 °F 29.73 in WSW 7.0 mph 12.0 mph 85 % 0.03 in 0 W/m2
22:40 61.3 °F 57.1 °F 29.73 in WSW 7.0 mph 11.0 mph 86 % 0.03 in 0 W/m2
22:45 61.0 °F 57.1 °F 29.73 in WSW 5.0 mph 11.0 mph 87 % 0.03 in 0 W/m2
22:50 60.6 °F 57.0 °F 29.73 in SW 3.0 mph 8.0 mph 88 % 0.03 in 0 W/m2
22:55 60.4 °F 57.2 °F 29.74 in SW 3.0 mph 8.0 mph 89 % 0.03 in 0 W/m2
23:00 60.3 °F 57.0 °F 29.74 in SW 6.0 mph 15.0 mph 89 % 0.05 in 0 W/m2
23:05 60.1 °F 56.8 °F 29.74 in WSW 8.0 mph 15.0 mph 89 % 0.06 in 0 W/m2
23:10 59.7 °F 56.8 °F 29.74 in SW 8.0 mph 12.0 mph 90 % 0.08 in 0 W/m2
23:15 59.5 °F 56.9 °F 29.74 in SW 8.0 mph 14.0 mph 91 % 0.08 in 0 W/m2
23:20 59.4 °F 56.7 °F 29.74 in SW 8.0 mph 14.0 mph 91 % 0.09 in 0 W/m2
23:25 59.2 °F 56.6 °F 29.74 in SW 7.0 mph 11.0 mph 91 % 0.08 in 0 W/m2
23:30 59.0 °F 56.4 °F 29.74 in SW 6.0 mph 9.0 mph 91 % 0.07 in 0 W/m2
23:35 58.8 °F 56.2 °F 29.74 in SW 6.0 mph 9.0 mph 91 % 0.06 in 0 W/m2
23:40 58.8 °F 56.2 °F 29.73 in SW 6.0 mph 9.0 mph 91 % 0.06 in 0 W/m2
23:45 58.8 °F 56.5 °F 29.73 in SW 4.0 mph 9.0 mph 92 % 0.06 in 0 W/m2
23:50 58.8 °F 56.5 °F 29.72 in South 3.0 mph 6.0 mph 92 % 0.06 in 0 W/m2
23:55 58.8 °F 56.5 °F 29.72 in SSE 2.0 mph 5.0 mph 92 % 0.06 in 0 W/m2
Delerius-Weather
Compliments of Weather Underground - 2.25 mb

Data updates at regular intervals.